sensor_id;sensor_type;location;lat;lon;timestamp;pressure;altitude;pressure_sealevel;temperature;humidity
49451;BME280;35336;48.400;10.886;2023-05-01T00:00:02;96163.63;;;9.31;71.02
49451;BME280;35336;48.400;10.886;2023-05-01T00:00:18;96184.94;;;9.38;71.48
49451;BME280;35336;48.400;10.886;2023-05-01T00:00:33;96172.84;;;9.35;71.48
49451;BME280;35336;48.400;10.886;2023-05-01T00:00:48;96157.84;;;9.28;71.65
49451;BME280;35336;48.400;10.886;2023-05-01T00:01:04;96178.38;;;9.34;71.80
49451;BME280;35336;48.400;10.886;2023-05-01T00:01:20;96170.16;;;9.29;71.76
49451;BME280;35336;48.400;10.886;2023-05-01T00:01:35;96181.66;;;9.36;71.84
49451;BME280;35336;48.400;10.886;2023-05-01T00:01:50;96151.25;;;9.24;71.29
49451;BME280;35336;48.400;10.886;2023-05-01T00:02:06;96177.38;;;9.42;71.42
49451;BME280;35336;48.400;10.886;2023-05-01T00:02:21;96162.78;;;9.31;71.10
49451;BME280;35336;48.400;10.886;2023-05-01T00:02:37;96165.88;;;9.34;71.35
49451;BME280;35336;48.400;10.886;2023-05-01T00:02:52;96175.13;;;9.38;71.07
49451;BME280;35336;48.400;10.886;2023-05-01T00:03:07;96177.16;;;9.36;71.38
49451;BME280;35336;48.400;10.886;2023-05-01T00:03:23;96174.28;;;9.38;71.36
49451;BME280;35336;48.400;10.886;2023-05-01T00:03:38;96174.28;;;9.38;71.04
49451;BME280;35336;48.400;10.886;2023-05-01T00:03:53;96182.91;;;9.40;71.06
49451;BME280;35336;48.400;10.886;2023-05-01T00:04:09;96174.72;;;9.42;71.07
49451;BME280;35336;48.400;10.886;2023-05-01T00:04:24;96172.28;;;9.40;70.90
49451;BME280;35336;48.400;10.886;2023-05-01T00:04:39;96173.06;;;9.41;70.51
49451;BME280;35336;48.400;10.886;2023-05-01T00:04:55;96152.53;;;9.28;70.56
49451;BME280;35336;48.400;10.886;2023-05-01T00:05:10;96164.44;;;9.32;71.00
49451;BME280;35336;48.400;10.886;2023-05-01T00:05:26;96177.78;;;9.38;70.66
49451;BME280;35336;48.400;10.886;2023-05-01T00:05:41;96161.75;;;9.32;70.74
49451;BME280;35336;48.400;10.886;2023-05-01T00:06:01;96165.44;;;9.31;70.58
49451;BME280;35336;48.400;10.886;2023-05-01T00:06:16;96177.97;;;9.37;70.40
49451;BME280;35336;48.400;10.886;2023-05-01T00:06:32;96161.13;;;9.30;70.67
49451;BME280;35336;48.400;10.886;2023-05-01T00:06:47;96140.75;;;9.15;70.60
49451;BME280;35336;48.400;10.886;2023-05-01T00:07:02;96170.38;;;9.34;70.68
49451;BME280;35336;48.400;10.886;2023-05-01T00:07:18;96174.69;;;9.35;70.61
49451;BME280;35336;48.400;10.886;2023-05-01T00:07:33;96164.44;;;9.32;70.37
49451;BME280;35336;48.400;10.886;2023-05-01T00:07:48;96174.50;;;9.36;70.37
49451;BME280;35336;48.400;10.886;2023-05-01T00:08:04;96167.72;;;9.34;70.45
49451;BME280;35336;48.400;10.886;2023-05-01T00:08:19;96172.19;;;9.33;70.75
49451;BME280;35336;48.400;10.886;2023-05-01T00:08:35;96171.41;;;9.33;70.57
49451;BME280;35336;48.400;10.886;2023-05-01T00:08:50;96169.38;;;9.35;70.57
49451;BME280;35336;48.400;10.886;2023-05-01T00:09:05;96171.03;;;9.36;70.61
49451;BME280;35336;48.400;10.886;2023-05-01T00:09:21;96172.66;;;9.37;70.75
49451;BME280;35336;48.400;10.886;2023-05-01T00:09:36;96164.66;;;9.37;70.80
49451;BME280;35336;48.400;10.886;2023-05-01T00:09:51;96165.50;;;9.37;70.40
49451;BME280;35336;48.400;10.886;2023-05-01T00:10:07;96165.28;;;9.39;70.81
49451;BME280;35336;48.400;10.886;2023-05-01T00:10:22;96163.66;;;9.38;70.81
49451;BME280;35336;48.400;10.886;2023-05-01T00:10:38;96155.81;;;9.30;70.60
49451;BME280;35336;48.400;10.886;2023-05-01T00:10:53;96173.28;;;9.39;70.62
49451;BME280;35336;48.400;10.886;2023-05-01T00:11:09;96165.69;;;9.36;70.98
49451;BME280;35336;48.400;10.886;2023-05-01T00:11:24;96148.81;;;9.22;70.82
49451;BME280;35336;48.400;10.886;2023-05-01T00:11:39;96165.28;;;9.39;70.41
49451;BME280;35336;48.400;10.886;2023-05-01T00:11:55;96170.03;;;9.44;70.12
49451;BME280;35336;48.400;10.886;2023-05-01T00:12:10;96165.53;;;9.44;70.04
49451;BME280;35336;48.400;10.886;2023-05-01T00:12:26;96153.00;;;9.38;70.07
49451;BME280;35336;48.400;10.886;2023-05-01T00:12:41;96149.53;;;9.37;69.72
49451;BME280;35336;48.400;10.886;2023-05-01T00:12:56;96165.16;;;9.47;70.03
49451;BME280;35336;48.400;10.886;2023-05-01T00:13:11;96167.19;;;9.45;70.02
49451;BME280;35336;48.400;10.886;2023-05-01T00:13:27;96166.16;;;9.46;69.92
49451;BME280;35336;48.400;10.886;2023-05-01T00:13:42;96168.84;;;9.46;70.12
49451;BME280;35336;48.400;10.886;2023-05-01T00:13:57;96170.69;;;9.46;70.07
49451;BME280;35336;48.400;10.886;2023-05-01T00:14:13;96143.97;;;9.32;70.18
49451;BME280;35336;48.400;10.886;2023-05-01T00:14:28;96160.84;;;9.46;70.27
49451;BME280;35336;48.400;10.886;2023-05-01T00:14:43;96161.84;;;9.45;70.02
49451;BME280;35336;48.400;10.886;2023-05-01T00:14:58;96161.84;;;9.45;70.20
49451;BME280;35336;48.400;10.886;2023-05-01T00:15:14;96159.41;;;9.44;70.16
49451;BME280;35336;48.400;10.886;2023-05-01T00:15:30;96161.25;;;9.43;70.40
49451;BME280;35336;48.400;10.886;2023-05-01T00:15:45;96164.94;;;9.42;70.27
49451;BME280;35336;48.400;10.886;2023-05-01T00:16:01;96166.56;;;9.43;70.20
49451;BME280;35336;48.400;10.886;2023-05-01T00:16:16;96127.88;;;9.19;70.35
49451;BME280;35336;48.400;10.886;2023-05-01T00:16:31;96148.09;;;9.35;70.13
49451;BME280;35336;48.400;10.886;2023-05-01T00:16:46;96151.75;;;9.34;70.58
49451;BME280;35336;48.400;10.886;2023-05-01T00:17:02;96162.06;;;9.44;70.55
49451;BME280;35336;48.400;10.886;2023-05-01T00:17:17;96135.28;;;9.24;70.45
49451;BME280;35336;48.400;10.886;2023-05-01T00:17:32;96151.75;;;9.34;70.94
49451;BME280;35336;48.400;10.886;2023-05-01T00:17:48;96165.94;;;9.41;71.09
49451;BME280;35336;48.400;10.886;2023-05-01T00:18:03;96160.81;;;9.40;70.85
49451;BME280;35336;48.400;10.886;2023-05-01T00:18:18;96164.94;;;9.42;70.31
49451;BME280;35336;48.400;10.886;2023-05-01T00:18:34;96137.72;;;9.18;70.47
49451;BME280;35336;48.400;10.886;2023-05-01T00:18:49;96166.13;;;9.40;70.55
49451;BME280;35336;48.400;10.886;2023-05-01T00:19:04;96162.44;;;9.41;70.34
49451;BME280;35336;48.400;10.886;2023-05-01T00:19:20;96160.19;;;9.37;70.50
49451;BME280;35336;48.400;10.886;2023-05-01T00:19:35;96161.41;;;9.42;70.27
49451;BME280;35336;48.400;10.886;2023-05-01T00:19:53;96164.94;;;9.42;70.21
49451;BME280;35336;48.400;10.886;2023-05-01T00:20:09;96160.41;;;9.43;70.00
49451;BME280;35336;48.400;10.886;2023-05-01T00:20:28;96148.13;;;9.42;69.95
49451;BME280;35336;48.400;10.886;2023-05-01T00:20:43;96149.34;;;9.39;70.06
49451;BME280;35336;48.400;10.886;2023-05-01T00:20:58;96164.53;;;9.45;70.42
49451;BME280;35336;48.400;10.886;2023-05-01T00:21:14;96148.91;;;9.35;70.13
49451;BME280;35336;48.400;10.886;2023-05-01T00:21:29;96151.19;;;9.38;70.44
49451;BME280;35336;48.400;10.886;2023-05-01T00:21:45;96157.94;;;9.41;70.72
49451;BME280;35336;48.400;10.886;2023-05-01T00:22:01;96160.22;;;9.44;70.53
49451;BME280;35336;48.400;10.886;2023-05-01T00:22:16;96148.25;;;9.33;70.61
49451;BME280;35336;48.400;10.886;2023-05-01T00:22:31;96164.53;;;9.45;70.80
49451;BME280;35336;48.400;10.886;2023-05-01T00:22:46;96162.06;;;9.44;70.65
49451;BME280;35336;48.400;10.886;2023-05-01T00:23:02;96162.06;;;9.44;70.36
49451;BME280;35336;48.400;10.886;2023-05-01T00:23:17;96157.53;;;9.44;70.60
49451;BME280;35336;48.400;10.886;2023-05-01T00:23:32;96155.94;;;9.43;70.38
49451;BME280;35336;48.400;10.886;2023-05-01T00:23:48;96166.38;;;9.45;70.64
49451;BME280;35336;48.400;10.886;2023-05-01T00:24:03;96156.50;;;9.38;70.54
49451;BME280;35336;48.400;10.886;2023-05-01T00:24:19;96141.31;;;9.32;70.54
49451;BME280;35336;48.400;10.886;2023-05-01T00:24:34;96158.38;;;9.45;70.47
49451;BME280;35336;48.400;10.886;2023-05-01T00:24:50;96156.75;;;9.44;70.83
49451;BME280;35336;48.400;10.886;2023-05-01T00:25:05;96144.41;;;9.36;71.04
49451;BME280;35336;48.400;10.886;2023-05-01T00:25:21;96154.28;;;9.42;70.70
49451;BME280;35336;48.400;10.886;2023-05-01T00:25:36;96156.75;;;9.44;71.01
49451;BME280;35336;48.400;10.886;2023-05-01T00:25:51;96141.94;;;9.34;70.48
49451;BME280;35336;48.400;10.886;2023-05-01T00:26:07;96156.09;;;9.42;70.78
49451;BME280;35336;48.400;10.886;2023-05-01T00:26:22;96155.94;;;9.43;70.61
49451;BME280;35336;48.400;10.886;2023-05-01T00:26:37;96131.25;;;9.28;70.76
49451;BME280;35336;48.400;10.886;2023-05-01T00:26:53;96156.09;;;9.42;70.62
49451;BME280;35336;48.400;10.886;2023-05-01T00:27:08;96157.75;;;9.43;70.92
49451;BME280;35336;48.400;10.886;2023-05-01T00:27:24;96150.78;;;9.42;70.92
49451;BME280;35336;48.400;10.886;2023-05-01T00:27:39;96150.97;;;9.40;70.70
49451;BME280;35336;48.400;10.886;2023-05-01T00:27:54;96157.94;;;9.41;70.82
49451;BME280;35336;48.400;10.886;2023-05-01T00:28:09;96151.78;;;9.41;70.93
49451;BME280;35336;48.400;10.886;2023-05-01T00:28:25;96149.75;;;9.36;70.80
49451;BME280;35336;48.400;10.886;2023-05-01T00:28:40;96150.19;;;9.40;70.89
49451;BME280;35336;48.400;10.886;2023-05-01T00:28:56;96132.25;;;9.27;71.25
49451;BME280;35336;48.400;10.886;2023-05-01T00:29:11;96128.16;;;9.24;70.94
49451;BME280;35336;48.400;10.886;2023-05-01T00:29:27;96149.34;;;9.39;70.60
49451;BME280;35336;48.400;10.886;2023-05-01T00:29:42;96148.53;;;9.38;70.59
49451;BME280;35336;48.400;10.886;2023-05-01T00:29:58;96153.00;;;9.38;70.53
49451;BME280;35336;48.400;10.886;2023-05-01T00:30:13;96140.69;;;9.30;70.37
49451;BME280;35336;48.400;10.886;2023-05-01T00:30:28;96146.03;;;9.37;70.38
49451;BME280;35336;48.400;10.886;2023-05-01T00:30:44;96153.00;;;9.38;70.74
49451;BME280;35336;48.400;10.886;2023-05-01T00:30:59;96149.34;;;9.39;70.82
49451;BME280;35336;48.400;10.886;2023-05-01T00:31:14;96141.50;;;9.31;71.09
49451;BME280;35336;48.400;10.886;2023-05-01T00:31:29;96153.41;;;9.35;71.20
49451;BME280;35336;48.400;10.886;2023-05-01T00:31:45;96147.88;;;9.36;71.27
49451;BME280;35336;48.400;10.886;2023-05-01T00:32:00;96144.78;;;9.33;70.70
49451;BME280;35336;48.400;10.886;2023-05-01T00:32:15;96153.41;;;9.35;71.12
49451;BME280;35336;48.400;10.886;2023-05-01T00:32:31;96149.91;;;9.34;71.16
49451;BME280;35336;48.400;10.886;2023-05-01T00:32:46;96118.88;;;9.13;71.34
49451;BME280;35336;48.400;10.886;2023-05-01T00:33:01;96135.72;;;9.27;70.77
49451;BME280;35336;48.400;10.886;2023-05-01T00:33:17;96155.44;;;9.33;70.83
49451;BME280;35336;48.400;10.886;2023-05-01T00:33:32;96146.88;;;9.37;70.67
49451;BME280;35336;48.400;10.886;2023-05-01T00:33:47;96148.31;;;9.40;69.91
49451;BME280;35336;48.400;10.886;2023-05-01T00:34:03;96144.84;;;9.40;70.09
49451;BME280;35336;48.400;10.886;2023-05-01T00:34:18;96132.28;;;9.33;69.62
49451;BME280;35336;48.400;10.886;2023-05-01T00:34:33;96148.13;;;9.42;69.40
49451;BME280;35336;48.400;10.886;2023-05-01T00:34:49;96125.09;;;9.27;69.69
49451;BME280;35336;48.400;10.886;2023-05-01T00:35:04;96138.66;;;9.32;69.86
49451;BME280;35336;48.400;10.886;2023-05-01T00:35:20;96153.84;;;9.38;69.57
49451;BME280;35336;48.400;10.886;2023-05-01T00:35:35;96146.03;;;9.37;69.73
49451;BME280;35336;48.400;10.886;2023-05-01T00:35:51;96144.00;;;9.39;69.79
49451;BME280;35336;48.400;10.886;2023-05-01T00:36:06;96151.34;;;9.37;70.17
49451;BME280;35336;48.400;10.886;2023-05-01T00:36:21;96146.03;;;9.37;70.17
49451;BME280;35336;48.400;10.886;2023-05-01T00:36:37;96143.56;;;9.35;70.15
49451;BME280;35336;48.400;10.886;2023-05-01T00:36:52;96142.34;;;9.38;69.88
49451;BME280;35336;48.400;10.886;2023-05-01T00:37:07;96134.53;;;9.30;70.00
49451;BME280;35336;48.400;10.886;2023-05-01T00:37:23;96130.25;;;9.29;70.16
49451;BME280;35336;48.400;10.886;2023-05-01T00:37:38;96147.88;;;9.36;70.38
49451;BME280;35336;48.400;10.886;2023-05-01T00:37:53;96153.41;;;9.35;70.06
49451;BME280;35336;48.400;10.886;2023-05-01T00:38:09;96147.06;;;9.36;70.31
49451;BME280;35336;48.400;10.886;2023-05-01T00:38:24;96149.53;;;9.37;69.92
49451;BME280;35336;48.400;10.886;2023-05-01T00:38:39;96139.91;;;9.36;69.72
49451;BME280;35336;48.400;10.886;2023-05-01T00:38:55;96146.03;;;9.37;69.82
49451;BME280;35336;48.400;10.886;2023-05-01T00:39:10;96144.41;;;9.36;69.65
49451;BME280;35336;48.400;10.886;2023-05-01T00:39:25;96146.22;;;9.35;69.98
49451;BME280;35336;48.400;10.886;2023-05-01T00:39:41;96144.59;;;9.34;69.87
49451;BME280;35336;48.400;10.886;2023-05-01T00:39:56;96144.34;;;9.29;69.86
49451;BME280;35336;48.400;10.886;2023-05-01T00:40:11;96140.47;;;9.32;70.17
49451;BME280;35336;48.400;10.886;2023-05-01T00:40:27;96146.81;;;9.31;70.17
49451;BME280;35336;48.400;10.886;2023-05-01T00:40:43;96115.13;;;9.08;70.22
49451;BME280;35336;48.400;10.886;2023-05-01T00:40:59;96139.84;;;9.30;70.23
49451;BME280;35336;48.400;10.886;2023-05-01T00:41:14;96142.50;;;9.30;70.55
49451;BME280;35336;48.400;10.886;2023-05-01T00:41:29;96136.56;;;9.28;70.08
49451;BME280;35336;48.400;10.886;2023-05-01T00:41:44;96139.84;;;9.30;70.26
49451;BME280;35336;48.400;10.886;2023-05-01T00:42:00;96147.81;;;9.30;70.52
49451;BME280;35336;48.400;10.886;2023-05-01T00:42:15;96122.13;;;9.15;70.74
49451;BME280;35336;48.400;10.886;2023-05-01T00:42:36;96126.44;;;9.16;71.01
49451;BME280;35336;48.400;10.886;2023-05-01T00:42:53;96141.25;;;9.26;71.21
49451;BME280;35336;48.400;10.886;2023-05-01T00:43:09;96141.47;;;9.24;71.25
49451;BME280;35336;48.400;10.886;2023-05-01T00:43:24;96143.91;;;9.26;71.13
49451;BME280;35336;48.400;10.886;2023-05-01T00:43:40;96133.28;;;9.26;71.46
49451;BME280;35336;48.400;10.886;2023-05-01T00:43:55;96130.13;;;9.15;71.29
49451;BME280;35336;48.400;10.886;2023-05-01T00:44:10;96136.75;;;9.26;71.59
49451;BME280;35336;48.400;10.886;2023-05-01T00:44:26;96136.94;;;9.25;71.26
49451;BME280;35336;48.400;10.886;2023-05-01T00:44:41;96141.25;;;9.26;71.73
49451;BME280;35336;48.400;10.886;2023-05-01T00:44:56;96142.28;;;9.25;71.82
49451;BME280;35336;48.400;10.886;2023-05-01T00:45:12;96138.59;;;9.26;71.56
49451;BME280;35336;48.400;10.886;2023-05-01T00:45:27;96122.78;;;9.17;71.88
49451;BME280;35336;48.400;10.886;2023-05-01T00:45:44;96132.84;;;9.22;71.58
49451;BME280;35336;48.400;10.886;2023-05-01T00:46:00;96125.81;;;9.14;71.59
49451;BME280;35336;48.400;10.886;2023-05-01T00:46:15;96139.97;;;9.21;71.62
49451;BME280;35336;48.400;10.886;2023-05-01T00:46:32;96136.31;;;9.22;71.75
49451;BME280;35336;48.400;10.886;2023-05-01T00:46:48;96134.06;;;9.19;71.78
49451;BME280;35336;48.400;10.886;2023-05-01T00:47:04;96133.66;;;9.22;71.84
49451;BME280;35336;48.400;10.886;2023-05-01T00:47:19;96134.50;;;9.23;71.70
49451;BME280;35336;48.400;10.886;2023-05-01T00:47:35;96127.28;;;9.17;72.16
49451;BME280;35336;48.400;10.886;2023-05-01T00:47:50;96125.19;;;9.12;72.04
49451;BME280;35336;48.400;10.886;2023-05-01T00:48:06;96130.75;;;9.17;72.44
49451;BME280;35336;48.400;10.886;2023-05-01T00:48:21;96135.06;;;9.18;72.61
49451;BME280;35336;48.400;10.886;2023-05-01T00:48:36;96131.56;;;9.18;72.92
49451;BME280;35336;48.400;10.886;2023-05-01T00:48:52;96137.72;;;9.18;72.75
49451;BME280;35336;48.400;10.886;2023-05-01T00:49:07;96132.78;;;9.15;72.77
49451;BME280;35336;48.400;10.886;2023-05-01T00:49:23;96128.28;;;9.16;72.78
49451;BME280;35336;48.400;10.886;2023-05-01T00:49:41;96133.63;;;9.16;71.98
49451;BME280;35336;48.400;10.886;2023-05-01T00:49:56;96100.72;;;8.95;71.90
49451;BME280;35336;48.400;10.886;2023-05-01T00:50:13;96136.50;;;9.21;72.07
49451;BME280;35336;48.400;10.886;2023-05-01T00:50:29;96137.31;;;9.21;71.57
49451;BME280;35336;48.400;10.886;2023-05-01T00:50:45;96132.41;;;9.18;71.69
49451;BME280;35336;48.400;10.886;2023-05-01T00:51:04;96136.50;;;9.21;71.61
49451;BME280;35336;48.400;10.886;2023-05-01T00:51:21;96134.84;;;9.20;71.50
49451;BME280;35336;48.400;10.886;2023-05-01T00:51:36;96120.88;;;9.11;71.58
49451;BME280;35336;48.400;10.886;2023-05-01T00:51:52;96121.97;;;9.17;71.96
49451;BME280;35336;48.400;10.886;2023-05-01T00:52:07;96130.75;;;9.17;71.61
49451;BME280;35336;48.400;10.886;2023-05-01T00:52:23;96134.22;;;9.18;71.82
49451;BME280;35336;48.400;10.886;2023-05-01T00:52:38;96137.72;;;9.18;72.34
49451;BME280;35336;48.400;10.886;2023-05-01T00:52:54;96135.06;;;9.18;72.13
49451;BME280;35336;48.400;10.886;2023-05-01T00:53:10;96129.75;;;9.18;71.88
49451;BME280;35336;48.400;10.886;2023-05-01T00:53:26;96135.25;;;9.17;72.10
49451;BME280;35336;48.400;10.886;2023-05-01T00:53:42;96101.31;;;8.97;71.92
49451;BME280;35336;48.400;10.886;2023-05-01T00:53:58;96115.56;;;9.11;72.15
49451;BME280;35336;48.400;10.886;2023-05-01T00:54:14;96118.88;;;9.13;71.87
49451;BME280;35336;48.400;10.886;2023-05-01T00:54:29;96122.34;;;9.14;71.76
49451;BME280;35336;48.400;10.886;2023-05-01T00:54:45;96123.53;;;9.11;71.83
49451;BME280;35336;48.400;10.886;2023-05-01T00:55:00;96129.31;;;9.15;71.72
49451;BME280;35336;48.400;10.886;2023-05-01T00:55:16;96119.25;;;9.10;71.76
49451;BME280;35336;48.400;10.886;2023-05-01T00:55:31;96129.50;;;9.13;72.00
49451;BME280;35336;48.400;10.886;2023-05-01T00:55:47;96137.09;;;9.16;72.12
49451;BME280;35336;48.400;10.886;2023-05-01T00:56:03;96111.41;;;9.02;71.86
49451;BME280;35336;48.400;10.886;2023-05-01T00:56:18;96134.41;;;9.16;71.84
49451;BME280;35336;48.400;10.886;2023-05-01T00:56:34;96118.59;;;9.08;72.07
49451;BME280;35336;48.400;10.886;2023-05-01T00:56:50;96136.06;;;9.17;72.00
49451;BME280;35336;48.400;10.886;2023-05-01T00:57:06;96117.59;;;9.09;71.82
49451;BME280;35336;48.400;10.886;2023-05-01T00:57:21;96119.25;;;9.10;72.19
49451;BME280;35336;48.400;10.886;2023-05-01T00:57:37;96137.72;;;9.18;71.86
49451;BME280;35336;48.400;10.886;2023-05-01T00:57:53;96134.41;;;9.16;72.13
49451;BME280;35336;48.400;10.886;2023-05-01T00:58:09;96139.38;;;9.19;71.75
49451;BME280;35336;48.400;10.886;2023-05-01T00:58:25;96130.75;;;9.17;71.50
49451;BME280;35336;48.400;10.886;2023-05-01T00:58:41;96135.44;;;9.15;71.39
49451;BME280;35336;48.400;10.886;2023-05-01T00:58:56;96108.88;;;8.94;71.20
49451;BME280;35336;48.400;10.886;2023-05-01T00:59:13;96137.47;;;9.13;71.28
49451;BME280;35336;48.400;10.886;2023-05-01T00:59:29;96139.31;;;9.13;71.28
49451;BME280;35336;48.400;10.886;2023-05-01T00:59:44;96140.50;;;9.10;71.21
49451;BME280;35336;48.400;10.886;2023-05-01T00:59:59;96130.88;;;9.09;71.48
49451;BME280;35336;48.400;10.886;2023-05-01T01:00:15;96133.94;;;9.06;71.65
49451;BME280;35336;48.400;10.886;2023-05-01T01:00:30;96129.06;;;9.10;71.26
49451;BME280;35336;48.400;10.886;2023-05-01T01:00:45;96133.53;;;9.09;71.54
49451;BME280;35336;48.400;10.886;2023-05-01T01:01:01;96127.22;;;9.10;71.43
49451;BME280;35336;48.400;10.886;2023-05-01T01:01:16;96129.06;;;9.10;71.40
49451;BME280;35336;48.400;10.886;2023-05-01T01:01:32;96134.56;;;9.08;71.41
49451;BME280;35336;48.400;10.886;2023-05-01T01:01:47;96134.38;;;9.10;71.46
49451;BME280;35336;48.400;10.886;2023-05-01T01:02:02;96129.06;;;9.10;71.76
49451;BME280;35336;48.400;10.886;2023-05-01T01:02:18;96131.72;;;9.10;71.69
49451;BME280;35336;48.400;10.886;2023-05-01T01:02:33;96128.22;;;9.09;71.55
49451;BME280;35336;48.400;10.886;2023-05-01T01:02:49;96132.75;;;9.09;71.33
49451;BME280;35336;48.400;10.886;2023-05-01T01:03:04;96125.97;;;9.06;71.46
49451;BME280;35336;48.400;10.886;2023-05-01T01:03:20;96131.91;;;9.08;71.58
49451;BME280;35336;48.400;10.886;2023-05-01T01:03:35;96130.06;;;9.09;71.58
49451;BME280;35336;48.400;10.886;2023-05-01T01:03:51;96102.75;;;8.93;71.69
49451;BME280;35336;48.400;10.886;2023-05-01T01:04:06;96117.56;;;9.02;71.27
49451;BME280;35336;48.400;10.886;2023-05-01T01:04:21;96133.94;;;9.06;71.55
49451;BME280;35336;48.400;10.886;2023-05-01T01:04:38;96107.63;;;8.89;71.86
49451;BME280;35336;48.400;10.886;2023-05-01T01:04:54;96127.34;;;9.02;71.88
49451;BME280;35336;48.400;10.886;2023-05-01T01:05:10;96124.50;;;9.03;71.66
49451;BME280;35336;48.400;10.886;2023-05-01T01:05:26;96113.56;;;8.92;71.67
49451;BME280;35336;48.400;10.886;2023-05-01T01:05:50;96132.47;;;9.03;71.66
49451;BME280;35336;48.400;10.886;2023-05-01T01:07:21;96122.72;;;9.11;71.28
49451;BME280;35336;48.400;10.886;2023-05-01T01:08:07;96124.56;;;9.10;71.47
49451;BME280;35336;48.400;10.886;2023-05-01T01:08:28;96115.50;;;9.04;71.58
49451;BME280;35336;48.400;10.886;2023-05-01T01:09:19;96124.31;;;9.05;71.44
49451;BME280;35336;48.400;10.886;2023-05-01T01:10:26;96100.28;;;8.92;71.35
49451;BME280;35336;48.400;10.886;2023-05-01T01:12:00;96115.69;;;9.03;71.38
49451;BME280;35336;48.400;10.886;2023-05-01T01:12:26;96113.41;;;9.00;71.27
49451;BME280;35336;48.400;10.886;2023-05-01T01:13:01;96111.03;;;9.05;71.16
49451;BME280;35336;48.400;10.886;2023-05-01T01:13:47;96110.94;;;8.98;71.45
49451;BME280;35336;48.400;10.886;2023-05-01T01:14:32;96115.47;;;8.98;71.52
49451;BME280;35336;48.400;10.886;2023-05-01T01:15:28;96108.63;;;8.88;72.55
49451;BME280;35336;48.400;10.886;2023-05-01T01:16:52;96111.50;;;8.87;72.94
49451;BME280;35336;48.400;10.886;2023-05-01T01:18:08;96110.03;;;8.84;73.59
49451;BME280;35336;48.400;10.886;2023-05-01T01:18:36;96071.19;;;8.62;73.61
49451;BME280;35336;48.400;10.886;2023-05-01T01:19:16;96107.09;;;8.79;73.76
49451;BME280;35336;48.400;10.886;2023-05-01T01:20:37;96109.16;;;8.77;73.81
49451;BME280;35336;48.400;10.886;2023-05-01T01:21:00;96103.00;;;8.77;73.98
49451;BME280;35336;48.400;10.886;2023-05-01T01:21:31;96103.84;;;8.77;73.57
49451;BME280;35336;48.400;10.886;2023-05-01T01:21:51;96100.78;;;8.80;73.76
49451;BME280;35336;48.400;10.886;2023-05-01T01:22:11;96100.97;;;8.79;73.78
49451;BME280;35336;48.400;10.886;2023-05-01T01:22:28;96105.47;;;8.78;73.75
49451;BME280;35336;48.400;10.886;2023-05-01T01:22:55;96106.66;;;8.76;73.85
49451;BME280;35336;48.400;10.886;2023-05-01T01:26:50;96091.44;;;8.63;72.89
49451;BME280;35336;48.400;10.886;2023-05-01T01:30:16;96078.66;;;8.51;73.67
49451;BME280;35336;48.400;10.886;2023-05-01T01:31:08;96108.75;;;8.80;72.62
49451;BME280;35336;48.400;10.886;2023-05-01T01:34:08;96100.66;;;8.67;73.06
49451;BME280;35336;48.400;10.886;2023-05-01T01:34:33;96096.75;;;8.63;72.67
49451;BME280;35336;48.400;10.886;2023-05-01T01:34:54;96065.44;;;8.43;72.55
49451;BME280;35336;48.400;10.886;2023-05-01T01:35:18;96075.53;;;8.48;72.57
49451;BME280;35336;48.400;10.886;2023-05-01T01:35:35;96085.59;;;8.52;72.86
49451;BME280;35336;48.400;10.886;2023-05-01T01:35:56;96075.72;;;8.46;73.14
49451;BME280;35336;48.400;10.886;2023-05-01T01:36:18;96095.91;;;8.62;72.86
49451;BME280;35336;48.400;10.886;2023-05-01T01:37:04;96101.03;;;8.64;73.35
49451;BME280;35336;48.400;10.886;2023-05-01T01:37:34;96091.81;;;8.60;73.03
49451;BME280;35336;48.400;10.886;2023-05-01T01:38:12;96070.03;;;8.49;73.20
49451;BME280;35336;48.400;10.886;2023-05-01T01:38:39;96098.00;;;8.67;73.39
49451;BME280;35336;48.400;10.886;2023-05-01T01:39:04;96097.81;;;8.68;73.37
49451;BME280;35336;48.400;10.886;2023-05-01T01:40:06;96099.09;;;8.72;72.81
49451;BME280;35336;48.400;10.886;2023-05-01T01:40:30;96099.25;;;8.71;72.90
49451;BME280;35336;48.400;10.886;2023-05-01T01:40:57;96097.44;;;8.71;73.28
49451;BME280;35336;48.400;10.886;2023-05-01T01:41:23;96097.44;;;8.71;72.86
49451;BME280;35336;48.400;10.886;2023-05-01T01:41:42;96100.09;;;8.71;72.92
49451;BME280;35336;48.400;10.886;2023-05-01T01:42:01;96091.47;;;8.69;72.58
49451;BME280;35336;48.400;10.886;2023-05-01T01:42:23;96101.75;;;8.72;72.16
49451;BME280;35336;48.400;10.886;2023-05-01T01:42:52;96098.69;;;8.76;72.26
49451;BME280;35336;48.400;10.886;2023-05-01T01:43:11;96098.09;;;8.73;72.77
49451;BME280;35336;48.400;10.886;2023-05-01T01:43:32;96098.88;;;8.74;72.78
49451;BME280;35336;48.400;10.886;2023-05-01T01:44:00;96082.25;;;8.65;72.68
49451;BME280;35336;48.400;10.886;2023-05-01T01:44:33;96098.09;;;8.73;72.21
49451;BME280;35336;48.400;10.886;2023-05-01T01:44:51;96096.44;;;8.72;72.53
49451;BME280;35336;48.400;10.886;2023-05-01T01:45:18;96072.56;;;8.57;72.17
49451;BME280;35336;48.400;10.886;2023-05-01T01:45:44;96096.44;;;8.72;72.17
49451;BME280;35336;48.400;10.886;2023-05-01T01:46:02;96097.88;;;8.75;72.82
49451;BME280;35336;48.400;10.886;2023-05-01T01:46:20;96098.44;;;8.70;72.50
49451;BME280;35336;48.400;10.886;2023-05-01T01:46:39;96081.63;;;8.63;72.27
49451;BME280;35336;48.400;10.886;2023-05-01T01:46:57;96088.81;;;8.69;72.42
49451;BME280;35336;48.400;10.886;2023-05-01T01:47:14;96082.44;;;8.64;72.90
49451;BME280;35336;48.400;10.886;2023-05-01T01:47:31;96077.50;;;8.61;72.30
49451;BME280;35336;48.400;10.886;2023-05-01T01:47:49;96078.53;;;8.60;72.58
49451;BME280;35336;48.400;10.886;2023-05-01T01:48:09;96097.63;;;8.70;72.85
49451;BME280;35336;48.400;10.886;2023-05-01T01:48:31;96094.72;;;8.65;72.77
49451;BME280;35336;48.400;10.886;2023-05-01T01:48:48;96099.47;;;8.69;72.58
49451;BME280;35336;48.400;10.886;2023-05-01T01:49:08;96091.69;;;8.68;72.53
49451;BME280;35336;48.400;10.886;2023-05-01T01:49:26;96100.47;;;8.68;72.84